Time;durP1;ratioP1;P1;durP2;ratioP2;P2;SDS_P1;SDS_P2;PMS_P1;PMS_P2;Temp;Humidity;BMP_temperature;BMP_pressure;BME280_temperature;BME280_humidity;BME280_pressure;Samples;Min_cycle;Max_cycle;Signal;HPM_P1;HPM_P2
2022/11/14 00:01:12;;;;;;;154.70;80.43;;;3.10;69.30;;;;;;5008315;28;114647;-80
2022/11/14 00:03:57;;;;;;;144.35;71.90;;;3.20;69.30;;;;;;5008033;28;114332;-80
2022/11/14 00:06:43;;;;;;;139.63;76.10;;;3.20;69.10;;;;;;4988662;28;114596;-81
2022/11/14 00:09:28;;;;;;;136.70;73.28;;;3.20;68.90;;;;;;5007730;28;115000;-80
2022/11/14 00:12:14;;;;;;;121.68;64.85;;;3.20;68.70;;;;;;5008428;28;118087;-82
2022/11/14 00:15:00;;;;;;;114.80;62.60;;;3.20;68.70;;;;;;5011485;28;114463;-82
2022/11/14 00:17:45;;;;;;;117.63;63.97;;;3.10;69.10;;;;;;5008818;28;114504;-82
2022/11/14 00:20:31;;;;;;;106.55;58.88;;;3.10;69.20;;;;;;5007649;28;115058;-81
2022/11/14 00:23:17;;;;;;;119.40;64.85;;;3.20;69.00;;;;;;5007203;28;114603;-82
2022/11/14 00:26:02;;;;;;;133.40;69.28;;;3.20;68.90;;;;;;5007183;28;114451;-81
2022/11/14 00:28:48;;;;;;;127.82;71.18;;;3.20;68.80;;;;;;5008640;28;114107;-82
2022/11/14 00:31:33;;;;;;;121.30;66.97;;;3.20;68.50;;;;;;5004836;28;115592;-82
2022/11/14 00:34:19;;;;;;;127.30;70.22;;;3.20;68.40;;;;;;5006915;28;114844;-82
2022/11/14 00:37:04;;;;;;;122.80;69.60;;;3.20;68.60;;;;;;5018337;28;114350;-82
2022/11/14 00:39:50;;;;;;;124.15;68.18;;;3.10;68.60;;;;;;5028354;27;114405;-81
2022/11/14 00:42:45;;;;;;;115.20;67.30;;;3.10;68.60;;;;;;5006546;28;114605;-82
2022/11/14 00:45:30;;;;;;;121.90;67.85;;;3.20;68.80;;;;;;5007234;28;114735;-81
2022/11/14 00:48:16;;;;;;;118.25;69.82;;;3.20;68.30;;;;;;4991915;28;114236;-81
2022/11/14 00:51:01;;;;;;;125.95;70.80;;;3.20;68.10;;;;;;4991333;28;114349;-81
2022/11/14 00:53:47;;;;;;;126.70;71.40;;;3.10;68.30;;;;;;5016269;28;115161;-81
2022/11/14 00:56:33;;;;;;;121.70;68.40;;;3.10;67.90;;;;;;5026868;27;114793;-81
2022/11/14 00:59:18;;;;;;;119.85;66.97;;;3.00;67.80;;;;;;5027509;27;114203;-80
2022/11/14 01:40:29;;;;;;;117.88;63.03;;;2.80;68.30;;;;;;4970845;22;28689550;-81
2022/11/14 01:50:36;;;;;;;113.25;61.45;;;2.70;68.10;;;;;;5806402;24;114534;-82
2022/11/14 01:54:02;;;;;;;97.15;52.95;;;2.70;68.30;;;;;;5763358;24;115453;-82
2022/11/14 01:57:19;;;;;;;96.18;54.70;;;2.70;68.30;;;;;;5743292;24;114330;-83
2022/11/14 02:00:06;;;;;;;91.93;50.22;;;2.70;68.60;;;;;;5735203;24;114468;-79
2022/11/14 02:02:56;;;;;;;86.30;48.03;;;2.70;68.60;;;;;;5913597;23;117787;-78
2022/11/14 02:05:41;;;;;;;82.18;47.53;;;2.70;68.70;;;;;;5944415;23;114725;-79
2022/11/14 02:08:27;;;;;;;78.40;44.80;;;2.80;68.70;;;;;;5906139;23;114235;-80
2022/11/14 02:11:13;;;;;;;74.70;44.95;;;2.90;68.90;;;;;;5906658;23;114228;-79
2022/11/14 02:13:59;;;;;;;85.40;44.22;;;2.90;68.70;;;;;;5944356;23;114981;-79
2022/11/14 02:16:44;;;;;;;70.38;43.78;;;2.90;68.60;;;;;;5915934;23;114341;-80
2022/11/14 02:19:59;;;;;;;74.38;42.75;;;2.90;69.20;;;;;;6030545;23;114289;-81
2022/11/14 02:22:49;;;;;;;83.95;47.80;;;2.90;69.00;;;;;;6012792;23;114667;-82
2022/11/14 02:25:35;;;;;;;81.60;45.53;;;2.90;68.40;;;;;;6029960;23;115422;-80
2022/11/14 02:28:22;;;;;;;101.78;56.05;;;2.90;68.00;;;;;;6029512;23;114572;-79
2022/11/14 02:31:07;;;;;;;95.32;55.17;;;2.80;68.00;;;;;;6030395;23;114254;-81
2022/11/14 02:33:53;;;;;;;98.95;58.17;;;2.80;68.00;;;;;;6086713;23;114352;-80
2022/11/14 02:36:38;;;;;;;103.55;57.72;;;2.80;67.90;;;;;;6117634;23;114802;-80
2022/11/14 02:39:23;;;;;;;103.57;57.97;;;2.80;68.00;;;;;;6113736;23;115699;-80
2022/11/14 02:42:09;;;;;;;104.03;56.03;;;2.70;68.20;;;;;;6087497;23;114620;-80
2022/11/14 02:44:54;;;;;;;97.35;55.17;;;2.70;68.20;;;;;;6087146;23;114445;-80
2022/11/14 02:47:40;;;;;;;89.70;52.30;;;2.80;68.40;;;;;;6090383;23;115487;-80
2022/11/14 02:50:25;;;;;;;92.50;53.10;;;2.80;68.60;;;;;;6127647;22;117173;-79
2022/11/14 02:53:11;;;;;;;97.45;53.88;;;2.80;68.60;;;;;;6144699;22;114102;-81
2022/11/14 02:55:56;;;;;;;95.55;56.28;;;2.90;68.30;;;;;;6143586;22;114462;-80
2022/11/14 02:58:42;;;;;;;95.07;54.97;;;2.90;68.10;;;;;;6142425;22;114873;-80
2022/11/14 03:01:27;;;;;;;97.13;55.28;;;2.80;68.10;;;;;;6143680;22;115419;-80
2022/11/14 03:04:13;;;;;;;97.88;55.65;;;2.80;68.10;;;;;;6145349;22;114325;-79
2022/11/14 03:06:58;;;;;;;97.63;52.47;;;2.80;67.90;;;;;;6144933;22;114272;-80
2022/11/14 03:09:44;;;;;;;96.53;52.33;;;2.80;67.90;;;;;;6143435;22;114861;-79
2022/11/14 03:12:30;;;;;;;86.35;46.50;;;2.80;68.10;;;;;;6142306;22;114786;-80
2022/11/14 03:15:15;;;;;;;75.00;43.47;;;2.80;67.90;;;;;;6142915;22;114305;-80
2022/11/14 03:18:01;;;;;;;70.55;41.95;;;2.80;67.80;;;;;;6144725;22;114704;-80
2022/11/14 03:20:46;;;;;;;69.47;40.03;;;2.80;68.10;;;;;;6141888;22;114900;-80
2022/11/14 03:23:32;;;;;;;65.35;37.65;;;2.70;68.00;;;;;;6143659;22;115755;-80
2022/11/14 03:26:18;;;;;;;69.65;39.05;;;2.60;68.20;;;;;;6143482;22;114562;-79
2022/11/14 03:29:03;;;;;;;64.22;37.50;;;2.50;68.30;;;;;;6144848;22;114241;-80
2022/11/14 03:31:49;;;;;;;64.63;37.88;;;2.40;68.80;;;;;;6144346;22;114834;-80
2022/11/14 03:34:34;;;;;;;66.07;37.42;;;2.40;69.00;;;;;;6144019;22;114567;-80
2022/11/14 03:37:20;;;;;;;66.57;38.78;;;2.50;69.00;;;;;;6145108;22;114197;-79
2022/11/14 03:40:05;;;;;;;62.72;35.83;;;2.60;68.90;;;;;;6143772;22;114228;-80
2022/11/14 03:42:51;;;;;;;68.20;39.42;;;2.60;68.50;;;;;;6143883;22;114802;-80
2022/11/14 03:45:37;;;;;;;59.20;36.17;;;2.70;68.50;;;;;;6143867;22;114416;-80
2022/11/14 03:48:22;;;;;;;69.22;37.88;;;2.70;68.40;;;;;;6122635;22;114280;-80
2022/11/14 03:51:08;;;;;;;67.72;38.88;;;2.70;68.50;;;;;;6143251;22;114309;-81
2022/11/14 03:53:54;;;;;;;82.28;44.58;;;2.70;68.40;;;;;;6142121;22;114869;-80
2022/11/14 03:56:39;;;;;;;85.25;45.85;;;2.70;68.30;;;;;;6142458;22;114669;-80
2022/11/14 03:59:25;;;;;;;88.50;47.97;;;2.60;68.30;;;;;;6144733;22;114204;-81
2022/11/14 04:02:10;;;;;;;78.93;44.00;;;2.70;68.30;;;;;;6144777;22;114203;-79
2022/11/14 04:04:56;;;;;;;79.03;43.60;;;2.60;68.20;;;;;;6142555;22;114857;-78
2022/11/14 04:07:41;;;;;;;69.47;42.05;;;2.70;68.10;;;;;;6143880;22;114726;-81
2022/11/14 04:10:27;;;;;;;72.07;40.65;;;2.60;68.20;;;;;;6145259;22;114073;-81
2022/11/14 04:13:12;;;;;;;78.13;43.63;;;2.60;68.20;;;;;;6144999;22;114427;-81
2022/11/14 04:15:57;;;;;;;74.50;41.25;;;2.60;68.20;;;;;;6143542;22;114793;-80
2022/11/14 04:18:43;;;;;;;76.25;45.05;;;2.50;68.20;;;;;;6120456;22;115187;-80
2022/11/14 04:21:28;;;;;;;87.95;51.47;;;2.40;68.40;;;;;;6144615;22;114433;-80
2022/11/14 04:24:14;;;;;;;90.03;51.03;;;2.40;68.40;;;;;;6143519;22;114293;-81
2022/11/14 04:26:59;;;;;;;83.20;47.13;;;2.40;68.50;;;;;;6141808;22;114889;-81
2022/11/14 04:29:45;;;;;;;81.00;47.92;;;2.50;68.30;;;;;;6143249;22;114520;-81
2022/11/14 04:32:30;;;;;;;75.47;46.38;;;2.40;68.50;;;;;;6144468;22;114506;-81
2022/11/14 04:35:16;;;;;;;73.00;40.42;;;2.40;68.60;;;;;;6144855;22;114564;-80
2022/11/14 04:38:01;;;;;;;73.32;41.90;;;2.40;68.50;;;;;;6139974;22;116960;-81
2022/11/14 04:40:49;;;;;;;75.15;43.20;;;2.40;68.80;;;;;;6141917;22;114638;-81
2022/11/14 04:43:34;;;;;;;73.32;42.95;;;2.50;68.70;;;;;;6143430;22;114091;-81
2022/11/14 04:46:20;;;;;;;73.78;40.70;;;2.50;68.70;;;;;;6144998;22;114364;-80
2022/11/14 04:49:05;;;;;;;68.50;38.95;;;2.50;68.50;;;;;;6143007;22;114874;-81
2022/11/14 04:51:51;;;;;;;70.25;38.13;;;2.50;69.10;;;;;;6142131;22;115093;-81
2022/11/14 04:54:36;;;;;;;66.25;37.83;;;2.60;68.80;;;;;;6144230;22;114343;-80
2022/11/14 04:57:21;;;;;;;61.58;36.50;;;2.60;68.70;;;;;;6144389;22;114324;-81
2022/11/14 05:00:08;;;;;;;67.95;39.63;;;2.60;68.60;;;;;;6141555;22;115013;-81
2022/11/14 05:02:53;;;;;;;72.85;39.90;;;2.60;68.40;;;;;;6142902;22;114804;-81
2022/11/14 05:05:38;;;;;;;68.75;39.20;;;2.70;68.40;;;;;;6143006;22;114363;-81
2022/11/14 05:08:27;;;;;;;70.22;38.72;;;2.60;68.60;;;;;;6122808;22;114320;-81
2022/11/14 05:11:17;;;;;;;71.95;39.20;;;2.70;68.40;;;;;;6143635;22;114882;-81
2022/11/14 05:14:02;;;;;;;70.55;42.03;;;2.70;68.00;;;;;;6143341;22;114779;-81
2022/11/14 05:16:48;;;;;;;76.50;41.17;;;2.60;68.00;;;;;;6144670;22;114886;-81
2022/11/14 05:19:33;;;;;;;76.82;43.30;;;2.60;68.10;;;;;;6143524;22;114624;-81
2022/11/14 05:22:19;;;;;;;79.10;43.28;;;2.60;68.40;;;;;;6142011;22;114975;-81
2022/11/14 05:25:05;;;;;;;78.18;43.55;;;2.60;68.40;;;;;;6143265;22;114609;-81
2022/11/14 05:27:51;;;;;;;78.78;44.33;;;2.70;68.50;;;;;;6142694;22;114321;-80
2022/11/14 05:30:36;;;;;;;82.90;46.97;;;2.70;68.30;;;;;;6144277;22;114151;-81
2022/11/14 05:33:22;;;;;;;81.13;47.88;;;2.70;68.40;;;;;;6142960;22;114948;-80
2022/11/14 05:36:09;;;;;;;85.18;44.00;;;2.70;68.40;;;;;;6121282;22;114555;-80
2022/11/14 05:38:54;;;;;;;76.63;45.72;;;2.70;69.50;;;;;;6142512;22;114302;-81
2022/11/14 05:41:40;;;;;;;79.53;45.25;;;2.70;69.50;;;;;;6144778;22;114348;-81
2022/11/14 05:44:25;;;;;;;80.30;46.85;;;2.70;69.20;;;;;;6143056;22;114891;-81
2022/11/14 05:47:11;;;;;;;76.35;46.70;;;2.70;68.90;;;;;;6143458;22;114668;-80
2022/11/14 05:49:56;;;;;;;77.10;43.88;;;2.80;68.70;;;;;;6144130;22;114196;-81
2022/11/14 05:52:41;;;;;;;79.35;43.67;;;2.80;68.80;;;;;;6143207;22;114431;-81
2022/11/14 05:55:27;;;;;;;73.53;41.47;;;2.80;68.60;;;;;;6143143;22;117156;-81
2022/11/14 05:58:12;;;;;;;72.65;42.00;;;2.80;68.50;;;;;;6142678;22;114907;-81
2022/11/14 06:01:09;;;;;;;70.80;41.00;;;2.80;68.70;;;;;;6144225;22;114062;-81
2022/11/14 06:03:54;;;;;;;69.43;41.17;;;2.80;68.50;;;;;;6144499;22;114108;-81
2022/11/14 06:06:40;;;;;;;77.13;42.22;;;2.80;68.40;;;;;;6141689;22;116041;-81
2022/11/14 06:09:26;;;;;;;66.78;41.15;;;2.80;68.30;;;;;;6141405;22;115284;-81
2022/11/14 06:12:11;;;;;;;68.93;39.33;;;2.80;68.60;;;;;;6144152;22;114201;-81
2022/11/14 06:14:57;;;;;;;55.75;34.83;;;2.70;68.30;;;;;;6122548;22;114268;-81
2022/11/14 06:17:42;;;;;;;55.47;33.80;;;2.60;68.90;;;;;;6144463;22;115675;-80
2022/11/14 06:20:28;;;;;;;60.47;35.20;;;2.40;69.60;;;;;;6143002;22;114560;-82
2022/11/14 06:23:13;;;;;;;59.03;35.03;;;2.30;70.00;;;;;;6145701;22;114413;-81
2022/11/14 06:26:02;;;;;;;67.95;41.25;;;2.30;70.70;;;;;;6123494;22;114410;-81
2022/11/14 06:28:48;;;;;;;68.65;40.17;;;2.50;70.20;;;;;;6142914;22;114825;-82
2022/11/14 06:31:34;;;;;;;66.35;36.30;;;2.60;70.30;;;;;;6144252;22;114604;-81
2022/11/14 06:34:19;;;;;;;70.65;41.58;;;2.60;70.10;;;;;;6145570;22;114440;-81
2022/11/14 06:37:04;;;;;;;61.55;36.95;;;2.60;69.80;;;;;;6142867;22;114388;-82
2022/11/14 06:39:50;;;;;;;72.82;40.28;;;2.70;70.00;;;;;;6142475;22;114955;-81
2022/11/14 06:42:35;;;;;;;65.72;37.40;;;2.70;70.20;;;;;;6142887;22;114635;-81
2022/11/14 06:45:21;;;;;;;80.30;39.17;;;2.80;70.00;;;;;;6143729;22;114541;-81
2022/11/14 06:48:07;;;;;;;63.08;34.88;;;3.00;70.40;;;;;;6144125;22;114211;-82
2022/11/14 06:50:56;;;;;;;66.55;37.58;;;3.20;70.10;;;;;;6136957;22;116873;-82
2022/11/14 06:53:42;;;;;;;61.67;35.38;;;3.20;69.50;;;;;;6140147;22;115444;-81
2022/11/14 06:56:27;;;;;;;52.55;31.13;;;3.20;69.20;;;;;;6144109;22;114503;-81
2022/11/14 06:59:14;;;;;;;54.28;32.60;;;3.20;69.40;;;;;;6144189;22;114191;-80
2022/11/14 07:01:59;;;;;;;54.53;31.77;;;3.30;69.30;;;;;;6141631;22;114852;-80
2022/11/14 07:04:45;;;;;;;47.33;29.80;;;3.30;69.40;;;;;;6142729;22;114592;-79
2022/11/14 07:07:31;;;;;;;46.60;30.65;;;3.40;69.40;;;;;;6144578;22;114766;-82
2022/11/14 07:10:16;;;;;;;51.90;30.45;;;3.40;69.60;;;;;;6144650;22;114498;-81
2022/11/14 07:13:02;;;;;;;47.92;27.92;;;3.60;69.50;;;;;;6141728;22;115138;-81
2022/11/14 07:15:51;;;;;;;46.72;29.58;;;3.70;69.30;;;;;;6142750;22;114593;-82
2022/11/14 07:18:37;;;;;;;50.65;28.98;;;3.90;69.10;;;;;;6144727;22;114266;-82
2022/11/14 07:21:22;;;;;;;48.85;29.40;;;4.00;68.70;;;;;;6143516;22;114267;-82
2022/11/14 07:24:08;;;;;;;54.47;30.50;;;4.00;68.60;;;;;;6141526;22;114793;-81
2022/11/14 07:26:53;;;;;;;57.60;30.02;;;3.90;68.00;;;;;;6141341;22;114661;-82
2022/11/14 07:29:39;;;;;;;63.85;29.10;;;3.70;68.10;;;;;;6142976;22;114564;-81
2022/11/14 07:32:24;;;;;;;72.32;30.30;;;3.50;68.30;;;;;;6144591;22;114816;-81
2022/11/14 07:35:10;;;;;;;66.47;28.08;;;3.20;68.50;;;;;;6141776;22;116188;-81
2022/11/14 07:38:02;;;;;;;57.75;27.73;;;3.00;69.00;;;;;;6141358;22;115211;-81
2022/11/14 07:40:57;;;;;;;46.28;25.75;;;3.00;69.40;;;;;;6142407;22;114378;-82
2022/11/14 07:43:44;;;;;;;54.25;28.48;;;2.90;69.60;;;;;;6144705;22;114234;-82
2022/11/14 07:46:30;;;;;;;49.10;25.30;;;2.90;69.60;;;;;;6120773;22;115008;-81
2022/11/14 07:49:15;;;;;;;66.30;29.40;;;2.90;69.60;;;;;;6142966;22;115090;-81
2022/11/14 07:52:01;;;;;;;58.90;28.63;;;2.80;69.60;;;;;;6143630;22;114213;-82
2022/11/14 07:54:46;;;;;;;51.15;28.42;;;2.70;69.80;;;;;;6144046;22;114777;-81
2022/11/14 07:57:32;;;;;;;52.72;28.05;;;2.80;70.00;;;;;;6142777;22;114811;-81
2022/11/14 08:00:24;;;;;;;55.17;28.95;;;2.90;70.40;;;;;;6141024;22;114868;-82
2022/11/14 08:03:10;;;;;;;50.78;28.45;;;3.20;70.10;;;;;;6142053;22;114998;-82
2022/11/14 08:06:03;;;;;;;48.13;27.55;;;3.30;69.60;;;;;;6142284;22;114870;-81
2022/11/14 08:08:48;;;;;;;55.95;28.35;;;3.50;70.00;;;;;;6142940;22;115060;-82
2022/11/14 08:11:49;;;;;;;50.97;29.45;;;3.60;69.90;;;;;;6142493;22;114557;-82
2022/11/14 08:14:34;;;;;;;53.28;29.45;;;3.70;69.40;;;;;;6143675;22;114340;-81
2022/11/14 08:17:20;;;;;;;55.63;31.40;;;3.80;69.60;;;;;;6143110;22;114212;-81
2022/11/14 08:20:07;;;;;;;51.35;31.00;;;4.00;69.50;;;;;;6142219;22;114905;-81
2022/11/14 08:22:53;;;;;;;51.85;30.98;;;4.10;69.60;;;;;;6141221;22;114745;-81
2022/11/14 08:25:38;;;;;;;52.15;27.58;;;4.20;69.20;;;;;;6143953;22;114246;-81
2022/11/14 08:28:24;;;;;;;55.03;32.25;;;4.20;69.00;;;;;;6143771;22;114230;-81
2022/11/14 08:31:09;;;;;;;63.40;34.55;;;4.30;69.00;;;;;;6140734;22;114806;-82
2022/11/14 08:33:55;;;;;;;56.50;33.95;;;4.50;69.10;;;;;;6141297;22;115642;-82
2022/11/14 08:36:41;;;;;;;60.78;34.65;;;4.60;68.90;;;;;;6141701;22;114292;-82
2022/11/14 08:39:27;;;;;;;58.30;35.42;;;4.70;68.90;;;;;;6142745;22;114308;-82
2022/11/14 08:42:13;;;;;;;60.35;36.75;;;4.90;68.90;;;;;;6142094;22;114979;-82
2022/11/14 08:45:03;;;;;;;63.08;37.67;;;5.00;68.90;;;;;;6141131;22;114576;-82
2022/11/14 08:47:52;;;;;;;58.15;37.85;;;5.20;68.50;;;;;;6144188;22;114518;-81
2022/11/14 08:50:37;;;;;;;55.83;34.15;;;5.40;68.50;;;;;;6142397;22;114340;-80
2022/11/14 08:53:23;;;;;;;55.55;34.13;;;5.50;68.30;;;;;;6142157;22;115468;-81
2022/11/14 08:56:09;;;;;;;56.25;33.05;;;5.50;68.10;;;;;;6140409;22;117878;-80
2022/11/14 08:58:55;;;;;;;58.03;34.72;;;5.50;68.20;;;;;;6142950;22;114115;-81
2022/11/14 09:01:41;;;;;;;57.08;31.90;;;5.60;68.30;;;;;;6143930;22;114334;-81
2022/11/14 09:04:26;;;;;;;56.20;33.72;;;5.60;68.20;;;;;;6139915;22;114802;-81
2022/11/14 09:07:12;;;;;;;54.30;32.50;;;5.70;68.30;;;;;;6145039;22;114656;-81
2022/11/14 09:09:58;;;;;;;64.63;36.85;;;5.70;68.40;;;;;;6145055;22;114303;-81
2022/11/14 09:12:43;;;;;;;66.07;38.65;;;5.80;68.20;;;;;;6144566;22;114015;-80
2022/11/14 09:15:29;;;;;;;63.72;36.70;;;5.80;68.30;;;;;;6142568;22;115011;-81
2022/11/14 09:18:14;;;;;;;66.70;36.92;;;6.00;68.30;;;;;;6119318;22;117232;-81
2022/11/14 09:21:04;;;;;;;60.17;35.42;;;6.10;68.20;;;;;;6142666;22;114220;-81
2022/11/14 09:23:50;;;;;;;62.75;37.08;;;6.30;68.00;;;;;;6142594;22;114541;-81
2022/11/14 09:26:35;;;;;;;67.68;39.15;;;6.40;67.90;;;;;;6142514;22;115090;-82
2022/11/14 09:29:21;;;;;;;65.28;37.72;;;6.40;68.00;;;;;;6142826;22;114564;-81
2022/11/14 09:32:07;;;;;;;70.75;38.45;;;6.50;68.00;;;;;;6141291;22;114629;-80
2022/11/14 09:34:52;;;;;;;64.93;39.22;;;6.60;68.10;;;;;;6143379;22;114742;-80
2022/11/14 09:37:38;;;;;;;72.38;39.42;;;6.70;68.10;;;;;;6142627;22;114805;-79
2022/11/14 09:40:23;;;;;;;69.65;40.58;;;6.80;67.90;;;;;;6141740;22;115186;-79
2022/11/14 09:43:38;;;;;;;71.72;40.20;;;7.00;67.80;;;;;;6121227;22;114268;-79
2022/11/14 09:46:36;;;;;;;63.88;39.83;;;7.20;67.60;;;;;;6143647;22;114265;-79
2022/11/14 09:49:24;;;;;;;76.78;43.88;;;7.20;67.40;;;;;;6142233;22;114786;-79
2022/11/14 09:52:24;;;;;;;76.03;43.35;;;7.40;67.30;;;;;;6142963;22;114564;-81
2022/11/14 09:55:27;;;;;;;70.50;42.80;;;7.60;67.10;;;;;;6142715;22;115133;-80
2022/11/14 09:58:20;;;;;;;79.90;46.33;;;7.70;67.00;;;;;;6144180;22;114202;-81
2022/11/14 10:01:11;;;;;;;76.68;45.15;;;7.70;66.80;;;;;;6141743;22;117183;-81
2022/11/14 10:04:00;;;;;;;73.47;44.28;;;7.90;66.60;;;;;;6121906;22;114760;-80
2022/11/14 10:07:25;;;;;;;57.10;37.67;;;7.90;66.60;;;;;;6144256;22;114442;-79
2022/11/14 10:10:35;;;;;;;62.67;38.70;;;8.00;66.40;;;;;;6122646;22;114241;-79
2022/11/14 10:14:00;;;;;;;57.08;35.58;;;8.10;66.50;;;;;;6124501;22;118926;-78
2022/11/14 10:17:11;;;;;;;55.53;36.65;;;8.20;66.40;;;;;;6143788;22;114904;-80
2022/11/14 10:20:15;;;;;;;59.88;37.55;;;8.20;66.40;;;;;;6144326;22;114188;-79
2022/11/14 10:23:45;;;;;;;59.60;38.70;;;8.30;66.50;;;;;;6143868;22;114692;-80
2022/11/14 10:26:31;;;;;;;61.20;38.20;;;8.40;66.50;;;;;;6128638;22;116962;-81
2022/11/14 10:29:41;;;;;;;61.60;38.20;;;8.40;66.50;;;;;;6100070;22;117459;-82
2022/11/14 10:32:39;;;;;;;59.58;36.88;;;8.50;66.30;;;;;;6144310;22;114502;-82
2022/11/14 10:35:35;;;;;;;57.63;35.63;;;8.50;66.40;;;;;;6142716;22;114775;-81
2022/11/14 10:38:36;;;;;;;58.17;37.45;;;8.70;66.30;;;;;;6142512;22;114859;-80
2022/11/14 10:41:22;;;;;;;59.47;38.15;;;8.70;66.20;;;;;;6143454;22;114747;-81
2022/11/14 10:44:31;;;;;;;55.40;36.67;;;8.70;66.20;;;;;;6126634;22;114581;-83
2022/11/14 10:47:18;;;;;;;65.20;39.60;;;8.70;66.10;;;;;;6143107;22;114522;-83
2022/11/14 10:50:17;;;;;;;64.90;39.95;;;8.80;66.10;;;;;;6099558;22;118483;-81
2022/11/14 10:53:05;;;;;;;67.57;41.60;;;8.80;66.10;;;;;;6120706;22;118133;-80
2022/11/14 10:55:52;;;;;;;65.22;39.67;;;8.80;66.20;;;;;;6143228;22;114222;-79
2022/11/14 10:58:52;;;;;;;64.53;41.20;;;8.80;66.20;;;;;;6143439;22;114379;-81
2022/11/14 11:01:42;;;;;;;59.38;36.15;;;8.80;66.40;;;;;;6141454;22;116059;-81
2022/11/14 11:04:28;;;;;;;63.00;39.50;;;8.90;66.30;;;;;;6143262;22;114627;-80
2022/11/14 11:13:34;;;;;;;62.73;38.80;;;8.80;66.30;;;;;;6141874;22;114914;-80
2022/11/14 11:16:23;;;;;;;63.40;39.08;;;8.80;66.30;;;;;;6141430;22;114651;-80
2022/11/14 11:19:25;;;;;;;66.35;40.13;;;8.80;66.30;;;;;;6142716;22;114457;-81
2022/11/14 11:22:25;;;;;;;62.08;37.83;;;8.80;66.30;;;;;;6143793;22;115890;-81
2022/11/14 11:25:32;;;;;;;65.07;38.30;;;8.80;66.30;;;;;;6143401;22;114972;-81
2022/11/14 11:28:19;;;;;;;68.65;40.17;;;8.90;66.40;;;;;;6141568;22;115339;-82
2022/11/14 11:31:06;;;;;;;68.70;40.75;;;8.70;66.60;;;;;;6145260;22;114295;-80
2022/11/14 11:33:52;;;;;;;69.03;41.58;;;8.70;66.70;;;;;;6143216;22;114436;-82
2022/11/14 11:36:41;;;;;;;68.93;40.10;;;8.80;66.70;;;;;;6142122;22;115563;-82
2022/11/14 11:39:31;;;;;;;72.38;39.97;;;8.80;66.80;;;;;;6148784;22;114765;-80
2022/11/14 11:42:39;;;;;;;68.15;40.88;;;8.70;66.90;;;;;;6152518;22;114592;-82
2022/11/14 11:45:46;;;;;;;74.28;43.15;;;8.80;66.90;;;;;;6153920;22;114285;-80
2022/11/14 11:48:38;;;;;;;74.53;42.92;;;8.80;67.00;;;;;;6150731;22;115038;-82
2022/11/14 11:51:23;;;;;;;76.55;43.58;;;8.80;67.10;;;;;;6149238;22;114907;-80
2022/11/14 11:54:13;;;;;;;82.28;46.58;;;8.80;67.00;;;;;;6130009;22;114592;-79
2022/11/14 11:57:01;;;;;;;77.18;43.50;;;8.80;67.10;;;;;;6174086;22;114334;-80
2022/11/14 11:59:48;;;;;;;79.07;43.40;;;8.80;67.10;;;;;;6149909;22;114833;-79
2022/11/14 12:02:35;;;;;;;79.15;46.03;;;8.80;67.20;;;;;;6150029;22;114669;-80
2022/11/14 12:05:48;;;;;;;75.13;42.70;;;8.80;67.30;;;;;;6152454;22;114432;-80
2022/11/14 12:09:11;;;;;;;77.70;42.58;;;8.80;67.30;;;;;;6173877;22;114516;-81
2022/11/14 12:11:59;;;;;;;78.40;45.22;;;8.80;67.50;;;;;;6171984;22;115217;-81
2022/11/14 12:15:14;;;;;;;75.70;44.78;;;8.70;67.70;;;;;;6125960;22;117980;-82
2022/11/14 12:18:25;;;;;;;76.50;44.70;;;8.70;67.90;;;;;;6146338;22;114647;-81
2022/11/14 12:21:18;;;;;;;78.30;46.05;;;8.70;67.80;;;;;;6174022;22;114389;-81
2022/11/14 12:24:07;;;;;;;69.95;40.72;;;8.70;68.00;;;;;;6150417;22;114844;-81
2022/11/14 12:27:10;;;;;;;65.60;39.30;;;8.70;68.00;;;;;;6172846;22;114551;-81
2022/11/14 12:29:56;;;;;;;72.63;42.50;;;8.70;67.90;;;;;;6175252;22;114133;-82
2022/11/14 12:32:58;;;;;;;61.90;38.90;;;8.70;67.90;;;;;;6174818;22;114290;-83
2022/11/14 12:35:49;;;;;;;65.45;41.28;;;8.80;67.80;;;;;;6173638;22;115076;-81
2022/11/14 12:38:49;;;;;;;69.43;42.63;;;8.90;67.80;;;;;;6130391;22;115065;-81
2022/11/14 12:41:36;;;;;;;65.63;39.85;;;8.90;67.90;;;;;;6152287;22;114293;-82
2022/11/14 12:44:26;;;;;;;66.85;40.75;;;8.90;67.90;;;;;;6151604;22;114384;-81
2022/11/14 12:47:13;;;;;;;62.75;39.30;;;9.00;67.80;;;;;;6173053;22;115389;-81
2022/11/14 12:50:00;;;;;;;68.63;41.33;;;9.00;67.70;;;;;;6173956;22;114574;-81
2022/11/14 12:52:49;;;;;;;65.53;41.33;;;9.10;67.80;;;;;;6152568;22;114379;-79
2022/11/14 12:55:35;;;;;;;67.18;41.05;;;9.10;67.70;;;;;;6152950;22;114336;-79
2022/11/14 12:58:35;;;;;;;71.55;43.00;;;9.20;67.60;;;;;;6173435;22;116632;-82
2022/11/14 13:01:49;;;;;;;77.25;44.70;;;9.20;67.70;;;;;;6151210;22;114643;-80
2022/11/14 13:05:08;;;;;;;71.88;45.05;;;9.20;67.60;;;;;;6174927;22;114076;-80
2022/11/14 13:08:15;;;;;;;77.88;44.10;;;9.20;67.60;;;;;;6174629;22;114290;-81
2022/11/14 13:21:46;;;;;;;79.53;45.42;;;9.30;67.70;;;;;;6175550;22;114220;-82
2022/11/14 13:24:57;;;;;;;72.82;45.33;;;9.20;67.80;;;;;;6124972;22;119356;-80
2022/11/14 13:27:42;;;;;;;71.85;42.60;;;9.30;67.70;;;;;;6173417;22;114603;-82
2022/11/14 13:31:13;;;;;;;69.28;42.72;;;9.20;67.80;;;;;;6156979;22;114307;-81
2022/11/14 13:33:59;;;;;;;77.88;45.97;;;9.30;67.80;;;;;;6175518;22;115022;-81
2022/11/14 13:36:56;;;;;;;76.35;47.40;;;9.30;67.90;;;;;;6152386;22;115285;-81
2022/11/14 13:39:47;;;;;;;78.97;48.50;;;9.30;68.00;;;;;;6153804;22;114673;-81
2022/11/14 13:42:53;;;;;;;82.78;50.20;;;9.30;68.10;;;;;;6153280;22;114742;-80
2022/11/14 13:45:52;;;;;;;;;;;9.30;68.40;;;;;;6154848;22;114188;-79
2022/11/14 13:49:02;;;;;;;82.68;49.95;;;9.20;68.00;;;;;;6151127;22;115455;-80
2022/11/14 13:51:51;;;;;;;91.03;53.22;;;9.10;68.80;;;;;;6146567;22;115843;-81
2022/11/14 13:54:36;;;;;;;78.65;48.63;;;9.10;68.90;;;;;;6151781;22;114720;-80
2022/11/14 13:57:25;;;;;;;79.65;47.30;;;9.10;68.80;;;;;;6174703;22;114298;-80
2022/11/14 14:00:16;;;;;;;77.18;46.15;;;9.10;68.90;;;;;;6173445;22;114789;-81
2022/11/14 14:03:18;;;;;;;;;;;9.20;69.00;;;;;;6173944;22;114553;-80
2022/11/14 14:06:09;;;;;;;78.28;48.65;;;9.00;68.50;;;;;;6152870;22;114312;-81
2022/11/14 14:09:09;;;;;;;74.18;47.33;;;9.00;69.30;;;;;;6152184;22;114423;-80
2022/11/14 14:12:00;;;;;;;72.93;45.55;;;9.00;69.30;;;;;;6153085;22;115436;-81
2022/11/14 14:14:54;;;;;;;79.88;49.88;;;9.00;69.40;;;;;;6150221;22;114847;-80
2022/11/14 14:17:52;;;;;;;78.80;48.30;;;8.90;69.60;;;;;;6151619;22;114403;-80
2022/11/14 14:20:51;;;;;;;74.20;47.20;;;8.90;69.50;;;;;;6151180;22;114322;-81
2022/11/14 14:23:56;;;;;;;77.45;49.60;;;8.90;69.80;;;;;;6149976;22;115030;-81
2022/11/14 14:26:54;;;;;;;80.35;47.88;;;8.90;69.90;;;;;;6171969;22;115192;-81
2022/11/14 14:29:45;;;;;;;86.32;49.85;;;8.80;70.00;;;;;;6151842;22;114810;-81
2022/11/14 14:32:30;;;;;;;82.05;50.10;;;8.70;70.10;;;;;;6150929;22;115716;-81
2022/11/14 14:35:30;;;;;;;87.55;50.42;;;8.60;70.20;;;;;;6172904;22;114887;-80
2022/11/14 14:38:24;;;;;;;72.15;46.10;;;8.60;70.30;;;;;;6126392;22;115549;-80
2022/11/14 14:41:11;;;;;;;83.50;49.30;;;8.50;70.30;;;;;;6142628;22;114173;-80
2022/11/14 14:43:56;;;;;;;76.78;48.25;;;8.50;70.40;;;;;;6143375;22;114560;-82
2022/11/14 14:46:42;;;;;;;79.07;49.80;;;8.50;70.50;;;;;;6141786;22;115462;-81
2022/11/14 14:49:31;;;;;;;85.18;48.38;;;8.40;70.60;;;;;;6143998;22;115170;-80
2022/11/14 14:52:20;;;;;;;88.85;53.50;;;8.30;70.80;;;;;;6142925;22;114222;-81
2022/11/14 14:55:15;;;;;;;84.53;51.75;;;8.30;70.80;;;;;;6145210;22;114436;-81
2022/11/14 14:58:26;;;;;;;80.40;49.83;;;8.20;70.80;;;;;;6120960;22;117350;-80
2022/11/14 15:01:16;;;;;;;79.85;49.00;;;8.20;70.90;;;;;;6143070;22;114711;-81
2022/11/14 15:04:07;;;;;;;80.82;48.72;;;8.20;71.00;;;;;;6122295;22;115143;-80
2022/11/14 15:06:55;;;;;;;78.95;47.55;;;8.10;71.20;;;;;;6143830;22;114677;-81
2022/11/14 15:09:52;;;;;;;73.70;46.30;;;8.10;71.20;;;;;;6122304;22;114854;-80
2022/11/14 15:12:38;;;;;;;77.80;48.10;;;8.10;71.30;;;;;;6143210;22;114632;-80
2022/11/14 15:15:26;;;;;;;80.72;47.72;;;8.00;71.30;;;;;;6140770;22;114853;-81
2022/11/14 15:18:25;;;;;;;74.57;46.80;;;7.90;71.30;;;;;;6141407;22;114434;-81
2022/11/14 15:21:23;;;;;;;73.50;47.28;;;7.90;71.40;;;;;;6140825;22;114824;-81
2022/11/14 15:24:13;;;;;;;77.88;46.15;;;7.90;71.50;;;;;;6138630;22;115579;-80